sensor_id;sensor_type;location;lat;lon;timestamp;P1;durP1;ratioP1;P2;durP2;ratioP2
16063;SDS011;8136;53.172;8.256;2022-09-09T00:01:08;15.00;;;11.47;;
16063;SDS011;8136;53.172;8.256;2022-09-09T00:03:47;12.80;;;11.43;;
16063;SDS011;8136;53.172;8.256;2022-09-09T00:06:21;13.37;;;11.63;;
16063;SDS011;8136;53.172;8.256;2022-09-09T00:08:56;13.57;;;12.03;;
16063;SDS011;8136;53.172;8.256;2022-09-09T00:11:29;14.60;;;11.23;;
16063;SDS011;8136;53.172;8.256;2022-09-09T00:14:02;15.23;;;11.73;;
16063;SDS011;8136;53.172;8.256;2022-09-09T00:16:34;16.13;;;12.83;;
16063;SDS011;8136;53.172;8.256;2022-09-09T00:19:07;16.37;;;12.73;;
16063;SDS011;8136;53.172;8.256;2022-09-09T00:21:43;14.30;;;10.80;;
16063;SDS011;8136;53.172;8.256;2022-09-09T00:24:23;14.93;;;11.13;;
16063;SDS011;8136;53.172;8.256;2022-09-09T00:26:55;16.93;;;12.17;;
16063;SDS011;8136;53.172;8.256;2022-09-09T00:29:28;14.03;;;11.57;;
16063;SDS011;8136;53.172;8.256;2022-09-09T00:32:05;16.27;;;12.90;;
16063;SDS011;8136;53.172;8.256;2022-09-09T00:34:38;15.30;;;12.63;;
16063;SDS011;8136;53.172;8.256;2022-09-09T00:37:08;13.70;;;11.60;;
16063;SDS011;8136;53.172;8.256;2022-09-09T00:39:38;13.07;;;10.67;;
16063;SDS011;8136;53.172;8.256;2022-09-09T00:42:12;20.30;;;12.37;;
16063;SDS011;8136;53.172;8.256;2022-09-09T00:44:45;17.20;;;12.30;;
16063;SDS011;8136;53.172;8.256;2022-09-09T00:47:24;16.07;;;12.80;;
16063;SDS011;8136;53.172;8.256;2022-09-09T00:50:14;14.77;;;12.37;;
16063;SDS011;8136;53.172;8.256;2022-09-09T00:52:53;13.97;;;12.43;;
16063;SDS011;8136;53.172;8.256;2022-09-09T00:55:30;17.57;;;12.53;;
16063;SDS011;8136;53.172;8.256;2022-09-09T00:58:06;16.10;;;12.10;;
16063;SDS011;8136;53.172;8.256;2022-09-09T01:00:35;18.60;;;12.70;;
16063;SDS011;8136;53.172;8.256;2022-09-09T01:03:25;14.73;;;12.10;;
16063;SDS011;8136;53.172;8.256;2022-09-09T01:06:11;19.77;;;13.23;;
16063;SDS011;8136;53.172;8.256;2022-09-09T01:08:46;17.47;;;11.97;;
16063;SDS011;8136;53.172;8.256;2022-09-09T01:11:29;19.60;;;12.90;;
16063;SDS011;8136;53.172;8.256;2022-09-09T01:14:05;19.97;;;13.17;;
16063;SDS011;8136;53.172;8.256;2022-09-09T01:16:44;16.50;;;12.17;;
16063;SDS011;8136;53.172;8.256;2022-09-09T01:19:15;15.87;;;12.67;;
16063;SDS011;8136;53.172;8.256;2022-09-09T01:21:53;15.43;;;11.87;;
16063;SDS011;8136;53.172;8.256;2022-09-09T01:24:27;14.50;;;11.30;;
16063;SDS011;8136;53.172;8.256;2022-09-09T01:27:16;15.30;;;12.23;;
16063;SDS011;8136;53.172;8.256;2022-09-09T01:29:45;13.70;;;11.60;;
16063;SDS011;8136;53.172;8.256;2022-09-09T01:35:08;16.00;;;11.97;;
16063;SDS011;8136;53.172;8.256;2022-09-09T01:37:38;14.07;;;12.07;;
16063;SDS011;8136;53.172;8.256;2022-09-09T01:40:06;17.03;;;12.20;;
16063;SDS011;8136;53.172;8.256;2022-09-09T01:42:34;16.50;;;11.90;;
16063;SDS011;8136;53.172;8.256;2022-09-09T01:45:03;16.23;;;11.47;;
16063;SDS011;8136;53.172;8.256;2022-09-09T01:47:34;15.60;;;12.53;;
16063;SDS011;8136;53.172;8.256;2022-09-09T01:50:03;15.83;;;11.33;;
16063;SDS011;8136;53.172;8.256;2022-09-09T01:52:32;17.03;;;12.37;;
16063;SDS011;8136;53.172;8.256;2022-09-09T01:55:02;15.93;;;12.20;;
16063;SDS011;8136;53.172;8.256;2022-09-09T01:57:31;15.40;;;12.83;;
16063;SDS011;8136;53.172;8.256;2022-09-09T02:00:08;13.40;;;11.23;;
16063;SDS011;8136;53.172;8.256;2022-09-09T02:02:41;15.27;;;12.80;;
16063;SDS011;8136;53.172;8.256;2022-09-09T02:05:36;15.97;;;11.50;;
16063;SDS011;8136;53.172;8.256;2022-09-09T02:08:11;18.33;;;12.23;;
16063;SDS011;8136;53.172;8.256;2022-09-09T02:10:50;14.83;;;11.73;;
16063;SDS011;8136;53.172;8.256;2022-09-09T02:13:23;14.33;;;11.90;;
16063;SDS011;8136;53.172;8.256;2022-09-09T02:15:59;15.10;;;10.90;;
16063;SDS011;8136;53.172;8.256;2022-09-09T02:18:32;14.23;;;11.80;;
16063;SDS011;8136;53.172;8.256;2022-09-09T02:21:02;17.20;;;11.47;;
16063;SDS011;8136;53.172;8.256;2022-09-09T02:23:30;13.90;;;10.93;;
16063;SDS011;8136;53.172;8.256;2022-09-09T02:25:59;15.63;;;11.93;;
16063;SDS011;8136;53.172;8.256;2022-09-09T02:28:30;13.13;;;11.17;;
16063;SDS011;8136;53.172;8.256;2022-09-09T02:30:59;13.13;;;10.17;;
16063;SDS011;8136;53.172;8.256;2022-09-09T02:33:28;16.17;;;10.93;;
16063;SDS011;8136;53.172;8.256;2022-09-09T02:36:00;13.03;;;9.90;;
16063;SDS011;8136;53.172;8.256;2022-09-09T02:38:34;14.20;;;10.23;;
16063;SDS011;8136;53.172;8.256;2022-09-09T02:41:03;13.77;;;10.77;;
16063;SDS011;8136;53.172;8.256;2022-09-09T02:43:33;13.93;;;10.47;;
16063;SDS011;8136;53.172;8.256;2022-09-09T02:46:02;14.53;;;11.03;;
16063;SDS011;8136;53.172;8.256;2022-09-09T02:48:36;14.93;;;11.13;;
16063;SDS011;8136;53.172;8.256;2022-09-09T02:51:14;14.67;;;11.93;;
16063;SDS011;8136;53.172;8.256;2022-09-09T02:53:47;16.07;;;11.40;;
16063;SDS011;8136;53.172;8.256;2022-09-09T02:56:20;14.97;;;11.73;;
16063;SDS011;8136;53.172;8.256;2022-09-09T02:58:51;15.30;;;12.23;;
16063;SDS011;8136;53.172;8.256;2022-09-09T03:01:19;14.00;;;11.60;;
16063;SDS011;8136;53.172;8.256;2022-09-09T03:03:46;14.30;;;11.10;;
16063;SDS011;8136;53.172;8.256;2022-09-09T03:06:13;17.07;;;11.40;;
16063;SDS011;8136;53.172;8.256;2022-09-09T03:08:40;13.40;;;10.67;;
16063;SDS011;8136;53.172;8.256;2022-09-09T03:11:07;13.23;;;9.97;;
16063;SDS011;8136;53.172;8.256;2022-09-09T03:13:35;13.17;;;10.80;;
16063;SDS011;8136;53.172;8.256;2022-09-09T03:16:04;15.83;;;10.57;;
16063;SDS011;8136;53.172;8.256;2022-09-09T03:18:31;12.30;;;10.53;;
16063;SDS011;8136;53.172;8.256;2022-09-09T03:20:59;10.90;;;9.70;;
16063;SDS011;8136;53.172;8.256;2022-09-09T03:23:26;13.43;;;9.80;;
16063;SDS011;8136;53.172;8.256;2022-09-09T03:25:53;13.60;;;10.13;;
16063;SDS011;8136;53.172;8.256;2022-09-09T03:28:22;12.50;;;10.60;;
16063;SDS011;8136;53.172;8.256;2022-09-09T03:30:57;14.20;;;10.83;;
16063;SDS011;8136;53.172;8.256;2022-09-09T03:33:26;11.57;;;9.27;;
16063;SDS011;8136;53.172;8.256;2022-09-09T03:35:53;12.77;;;10.60;;
16063;SDS011;8136;53.172;8.256;2022-09-09T03:38:21;13.40;;;9.63;;
16063;SDS011;8136;53.172;8.256;2022-09-09T03:40:49;12.37;;;9.43;;
16063;SDS011;8136;53.172;8.256;2022-09-09T03:43:20;12.10;;;8.63;;
16063;SDS011;8136;53.172;8.256;2022-09-09T03:45:47;11.60;;;9.30;;
16063;SDS011;8136;53.172;8.256;2022-09-09T03:48:14;13.57;;;9.50;;
16063;SDS011;8136;53.172;8.256;2022-09-09T03:50:45;13.83;;;9.87;;
16063;SDS011;8136;53.172;8.256;2022-09-09T03:53:22;9.73;;;8.73;;
16063;SDS011;8136;53.172;8.256;2022-09-09T03:55:51;13.40;;;9.43;;
16063;SDS011;8136;53.172;8.256;2022-09-09T03:58:19;10.63;;;9.20;;
16063;SDS011;8136;53.172;8.256;2022-09-09T04:00:52;13.13;;;9.50;;
16063;SDS011;8136;53.172;8.256;2022-09-09T04:03:21;13.23;;;9.37;;
16063;SDS011;8136;53.172;8.256;2022-09-09T04:05:50;10.63;;;9.50;;
16063;SDS011;8136;53.172;8.256;2022-09-09T04:08:18;10.67;;;9.57;;
16063;SDS011;8136;53.172;8.256;2022-09-09T04:10:46;11.37;;;9.60;;
16063;SDS011;8136;53.172;8.256;2022-09-09T04:13:13;12.20;;;9.33;;
16063;SDS011;8136;53.172;8.256;2022-09-09T04:15:41;14.13;;;8.87;;
16063;SDS011;8136;53.172;8.256;2022-09-09T04:18:08;11.97;;;8.93;;
16063;SDS011;8136;53.172;8.256;2022-09-09T04:20:36;12.70;;;9.10;;
16063;SDS011;8136;53.172;8.256;2022-09-09T04:23:05;11.17;;;8.53;;
16063;SDS011;8136;53.172;8.256;2022-09-09T04:25:31;11.20;;;8.53;;
16063;SDS011;8136;53.172;8.256;2022-09-09T04:27:59;14.63;;;9.27;;
16063;SDS011;8136;53.172;8.256;2022-09-09T04:30:25;13.93;;;8.20;;
16063;SDS011;8136;53.172;8.256;2022-09-09T04:32:53;13.13;;;8.87;;
16063;SDS011;8136;53.172;8.256;2022-09-09T04:35:20;8.90;;;8.00;;
16063;SDS011;8136;53.172;8.256;2022-09-09T04:37:46;10.13;;;8.20;;
16063;SDS011;8136;53.172;8.256;2022-09-09T04:40:15;9.97;;;8.30;;
16063;SDS011;8136;53.172;8.256;2022-09-09T04:42:57;11.07;;;8.07;;
16063;SDS011;8136;53.172;8.256;2022-09-09T04:45:24;12.87;;;8.07;;
16063;SDS011;8136;53.172;8.256;2022-09-09T04:47:51;11.50;;;7.73;;
16063;SDS011;8136;53.172;8.256;2022-09-09T04:50:18;10.50;;;8.27;;
16063;SDS011;8136;53.172;8.256;2022-09-09T04:52:45;10.47;;;8.90;;
16063;SDS011;8136;53.172;8.256;2022-09-09T04:55:13;10.10;;;8.13;;
16063;SDS011;8136;53.172;8.256;2022-09-09T04:57:42;10.67;;;7.60;;
16063;SDS011;8136;53.172;8.256;2022-09-09T05:00:10;8.87;;;7.73;;
16063;SDS011;8136;53.172;8.256;2022-09-09T05:02:38;10.30;;;7.80;;
16063;SDS011;8136;53.172;8.256;2022-09-09T05:05:06;11.80;;;7.67;;
16063;SDS011;8136;53.172;8.256;2022-09-09T05:07:33;11.43;;;8.40;;
16063;SDS011;8136;53.172;8.256;2022-09-09T05:10:02;12.00;;;8.10;;
16063;SDS011;8136;53.172;8.256;2022-09-09T05:12:31;9.13;;;7.70;;
16063;SDS011;8136;53.172;8.256;2022-09-09T05:14:58;8.97;;;6.90;;
16063;SDS011;8136;53.172;8.256;2022-09-09T05:17:25;9.70;;;7.13;;
16063;SDS011;8136;53.172;8.256;2022-09-09T05:19:52;9.70;;;7.57;;
16063;SDS011;8136;53.172;8.256;2022-09-09T05:22:19;12.00;;;8.10;;
16063;SDS011;8136;53.172;8.256;2022-09-09T05:24:46;9.50;;;7.13;;
16063;SDS011;8136;53.172;8.256;2022-09-09T05:27:15;10.47;;;7.67;;
16063;SDS011;8136;53.172;8.256;2022-09-09T05:29:44;11.90;;;7.93;;
16063;SDS011;8136;53.172;8.256;2022-09-09T05:32:13;12.03;;;7.23;;
16063;SDS011;8136;53.172;8.256;2022-09-09T05:34:40;12.17;;;7.50;;
16063;SDS011;8136;53.172;8.256;2022-09-09T05:37:06;12.40;;;7.90;;
16063;SDS011;8136;53.172;8.256;2022-09-09T05:39:33;8.70;;;7.07;;
16063;SDS011;8136;53.172;8.256;2022-09-09T05:42:02;9.53;;;7.37;;
16063;SDS011;8136;53.172;8.256;2022-09-09T05:44:29;8.63;;;6.90;;
16063;SDS011;8136;53.172;8.256;2022-09-09T05:46:58;9.37;;;7.00;;
16063;SDS011;8136;53.172;8.256;2022-09-09T05:49:25;9.73;;;6.60;;
16063;SDS011;8136;53.172;8.256;2022-09-09T05:51:51;10.00;;;6.80;;
16063;SDS011;8136;53.172;8.256;2022-09-09T05:54:18;9.17;;;7.10;;
16063;SDS011;8136;53.172;8.256;2022-09-09T05:56:45;9.40;;;7.00;;
16063;SDS011;8136;53.172;8.256;2022-09-09T05:59:15;8.20;;;6.57;;
16063;SDS011;8136;53.172;8.256;2022-09-09T06:01:43;11.37;;;7.13;;
16063;SDS011;8136;53.172;8.256;2022-09-09T06:04:11;9.73;;;7.13;;
16063;SDS011;8136;53.172;8.256;2022-09-09T06:06:38;8.93;;;6.33;;
16063;SDS011;8136;53.172;8.256;2022-09-09T06:09:07;6.97;;;6.27;;
16063;SDS011;8136;53.172;8.256;2022-09-09T06:11:36;10.83;;;6.23;;
16063;SDS011;8136;53.172;8.256;2022-09-09T06:14:05;9.43;;;6.50;;
16063;SDS011;8136;53.172;8.256;2022-09-09T06:16:32;6.83;;;5.67;;
16063;SDS011;8136;53.172;8.256;2022-09-09T06:19:00;9.57;;;6.67;;
16063;SDS011;8136;53.172;8.256;2022-09-09T06:21:30;8.93;;;5.97;;
16063;SDS011;8136;53.172;8.256;2022-09-09T06:23:59;7.50;;;6.30;;
16063;SDS011;8136;53.172;8.256;2022-09-09T06:26:27;7.83;;;5.77;;
16063;SDS011;8136;53.172;8.256;2022-09-09T06:28:55;6.97;;;6.07;;
16063;SDS011;8136;53.172;8.256;2022-09-09T06:31:24;7.33;;;5.90;;
16063;SDS011;8136;53.172;8.256;2022-09-09T06:33:55;7.00;;;6.03;;
16063;SDS011;8136;53.172;8.256;2022-09-09T06:36:24;8.07;;;5.90;;
16063;SDS011;8136;53.172;8.256;2022-09-09T06:38:53;8.03;;;5.67;;
16063;SDS011;8136;53.172;8.256;2022-09-09T06:41:21;7.27;;;5.57;;
16063;SDS011;8136;53.172;8.256;2022-09-09T06:43:51;8.00;;;5.63;;
16063;SDS011;8136;53.172;8.256;2022-09-09T06:46:18;8.30;;;5.60;;
16063;SDS011;8136;53.172;8.256;2022-09-09T06:48:46;8.53;;;5.10;;
16063;SDS011;8136;53.172;8.256;2022-09-09T06:51:14;7.10;;;5.20;;
16063;SDS011;8136;53.172;8.256;2022-09-09T06:53:43;6.80;;;5.10;;
16063;SDS011;8136;53.172;8.256;2022-09-09T06:56:19;7.17;;;5.90;;
16063;SDS011;8136;53.172;8.256;2022-09-09T06:58:48;7.03;;;5.77;;
16063;SDS011;8136;53.172;8.256;2022-09-09T07:01:16;8.93;;;6.00;;
16063;SDS011;8136;53.172;8.256;2022-09-09T07:03:45;8.43;;;6.43;;
16063;SDS011;8136;53.172;8.256;2022-09-09T07:06:15;10.30;;;7.03;;
16063;SDS011;8136;53.172;8.256;2022-09-09T07:08:47;9.97;;;6.40;;
16063;SDS011;8136;53.172;8.256;2022-09-09T07:11:15;7.37;;;5.50;;
16063;SDS011;8136;53.172;8.256;2022-09-09T07:13:43;7.07;;;6.23;;
16063;SDS011;8136;53.172;8.256;2022-09-09T07:16:11;8.13;;;5.87;;
16063;SDS011;8136;53.172;8.256;2022-09-09T07:18:42;8.00;;;5.23;;
16063;SDS011;8136;53.172;8.256;2022-09-09T07:21:09;9.20;;;5.67;;
16063;SDS011;8136;53.172;8.256;2022-09-09T07:23:37;8.27;;;5.47;;
16063;SDS011;8136;53.172;8.256;2022-09-09T07:26:07;5.40;;;4.90;;
16063;SDS011;8136;53.172;8.256;2022-09-09T07:28:34;6.37;;;4.83;;
16063;SDS011;8136;53.172;8.256;2022-09-09T07:31:03;5.13;;;4.27;;
16063;SDS011;8136;53.172;8.256;2022-09-09T07:33:31;7.97;;;4.87;;
16063;SDS011;8136;53.172;8.256;2022-09-09T07:36:04;4.90;;;4.27;;
16063;SDS011;8136;53.172;8.256;2022-09-09T07:38:37;7.23;;;5.00;;
16063;SDS011;8136;53.172;8.256;2022-09-09T07:41:09;6.70;;;4.63;;
16063;SDS011;8136;53.172;8.256;2022-09-09T07:43:39;8.57;;;5.10;;
16063;SDS011;8136;53.172;8.256;2022-09-09T07:46:08;7.20;;;4.83;;
16063;SDS011;8136;53.172;8.256;2022-09-09T07:48:37;7.07;;;5.20;;
16063;SDS011;8136;53.172;8.256;2022-09-09T07:51:05;6.97;;;4.60;;
16063;SDS011;8136;53.172;8.256;2022-09-09T07:53:35;14.47;;;5.60;;
16063;SDS011;8136;53.172;8.256;2022-09-09T07:56:03;7.70;;;5.30;;
16063;SDS011;8136;53.172;8.256;2022-09-09T07:58:31;6.87;;;5.37;;
16063;SDS011;8136;53.172;8.256;2022-09-09T08:00:59;6.23;;;4.80;;
16063;SDS011;8136;53.172;8.256;2022-09-09T08:03:27;9.97;;;5.63;;
16063;SDS011;8136;53.172;8.256;2022-09-09T08:05:59;8.93;;;5.43;;
16063;SDS011;8136;53.172;8.256;2022-09-09T08:08:31;10.20;;;5.33;;
16063;SDS011;8136;53.172;8.256;2022-09-09T08:11:02;9.07;;;5.43;;
16063;SDS011;8136;53.172;8.256;2022-09-09T08:13:34;8.67;;;5.90;;
16063;SDS011;8136;53.172;8.256;2022-09-09T08:16:07;7.47;;;5.63;;
16063;SDS011;8136;53.172;8.256;2022-09-09T08:18:38;7.40;;;5.03;;
16063;SDS011;8136;53.172;8.256;2022-09-09T08:21:06;6.97;;;5.03;;
16063;SDS011;8136;53.172;8.256;2022-09-09T08:23:34;6.37;;;4.50;;
16063;SDS011;8136;53.172;8.256;2022-09-09T08:26:05;6.73;;;5.03;;
16063;SDS011;8136;53.172;8.256;2022-09-09T08:28:36;7.17;;;5.00;;
16063;SDS011;8136;53.172;8.256;2022-09-09T08:31:05;6.23;;;4.87;;
16063;SDS011;8136;53.172;8.256;2022-09-09T08:33:37;6.70;;;4.87;;
16063;SDS011;8136;53.172;8.256;2022-09-09T08:36:14;6.63;;;4.40;;
16063;SDS011;8136;53.172;8.256;2022-09-09T08:38:42;7.30;;;4.63;;
16063;SDS011;8136;53.172;8.256;2022-09-09T08:41:28;5.57;;;3.93;;
16063;SDS011;8136;53.172;8.256;2022-09-09T08:44:04;9.17;;;4.43;;
16063;SDS011;8136;53.172;8.256;2022-09-09T08:46:38;6.10;;;4.50;;
16063;SDS011;8136;53.172;8.256;2022-09-09T08:49:17;6.00;;;4.73;;
16063;SDS011;8136;53.172;8.256;2022-09-09T08:52:25;7.60;;;4.63;;
16063;SDS011;8136;53.172;8.256;2022-09-09T08:54:55;5.47;;;4.90;;
16063;SDS011;8136;53.172;8.256;2022-09-09T08:57:38;6.63;;;4.67;;
16063;SDS011;8136;53.172;8.256;2022-09-09T09:00:13;7.17;;;4.20;;
16063;SDS011;8136;53.172;8.256;2022-09-09T09:02:42;7.77;;;4.73;;
16063;SDS011;8136;53.172;8.256;2022-09-09T09:05:23;4.40;;;3.50;;
16063;SDS011;8136;53.172;8.256;2022-09-09T09:08:00;5.07;;;3.50;;
16063;SDS011;8136;53.172;8.256;2022-09-09T09:10:37;5.80;;;2.43;;
16063;SDS011;8136;53.172;8.256;2022-09-09T09:13:13;2.10;;;1.77;;
16063;SDS011;8136;53.172;8.256;2022-09-09T09:15:42;5.03;;;1.90;;
16063;SDS011;8136;53.172;8.256;2022-09-09T09:18:13;4.70;;;2.37;;
16063;SDS011;8136;53.172;8.256;2022-09-09T09:20:42;5.80;;;2.57;;
16063;SDS011;8136;53.172;8.256;2022-09-09T09:23:20;6.50;;;2.47;;
16063;SDS011;8136;53.172;8.256;2022-09-09T09:25:49;5.43;;;2.53;;
16063;SDS011;8136;53.172;8.256;2022-09-09T09:28:23;4.10;;;3.07;;
16063;SDS011;8136;53.172;8.256;2022-09-09T09:31:03;8.13;;;3.00;;
16063;SDS011;8136;53.172;8.256;2022-09-09T09:33:34;4.83;;;3.10;;
16063;SDS011;8136;53.172;8.256;2022-09-09T09:36:14;4.57;;;2.70;;
16063;SDS011;8136;53.172;8.256;2022-09-09T09:38:51;4.23;;;2.80;;
16063;SDS011;8136;53.172;8.256;2022-09-09T09:41:28;4.50;;;2.70;;
16063;SDS011;8136;53.172;8.256;2022-09-09T09:43:56;6.10;;;3.00;;
16063;SDS011;8136;53.172;8.256;2022-09-09T09:46:24;3.60;;;2.60;;
16063;SDS011;8136;53.172;8.256;2022-09-09T09:48:56;4.17;;;2.67;;
16063;SDS011;8136;53.172;8.256;2022-09-09T09:51:25;4.07;;;2.83;;
16063;SDS011;8136;53.172;8.256;2022-09-09T09:53:53;4.17;;;3.00;;
16063;SDS011;8136;53.172;8.256;2022-09-09T09:56:26;2.83;;;2.47;;
16063;SDS011;8136;53.172;8.256;2022-09-09T09:58:54;5.57;;;2.60;;
16063;SDS011;8136;53.172;8.256;2022-09-09T10:01:22;5.30;;;2.20;;
16063;SDS011;8136;53.172;8.256;2022-09-09T10:03:51;6.20;;;2.67;;
16063;SDS011;8136;53.172;8.256;2022-09-09T10:06:30;3.97;;;2.60;;
16063;SDS011;8136;53.172;8.256;2022-09-09T10:09:20;4.70;;;2.30;;
16063;SDS011;8136;53.172;8.256;2022-09-09T10:12:06;4.47;;;2.20;;
16063;SDS011;8136;53.172;8.256;2022-09-09T10:14:42;3.83;;;2.53;;
16063;SDS011;8136;53.172;8.256;2022-09-09T10:17:17;4.23;;;2.90;;
16063;SDS011;8136;53.172;8.256;2022-09-09T10:19:55;4.50;;;2.87;;
16063;SDS011;8136;53.172;8.256;2022-09-09T10:22:34;4.97;;;2.60;;
16063;SDS011;8136;53.172;8.256;2022-09-09T10:25:05;4.70;;;2.90;;
16063;SDS011;8136;53.172;8.256;2022-09-09T10:27:46;4.50;;;2.90;;
16063;SDS011;8136;53.172;8.256;2022-09-09T10:30:22;3.50;;;2.90;;
16063;SDS011;8136;53.172;8.256;2022-09-09T10:33:00;7.97;;;2.67;;
16063;SDS011;8136;53.172;8.256;2022-09-09T10:35:35;4.93;;;2.70;;
16063;SDS011;8136;53.172;8.256;2022-09-09T10:41:11;5.47;;;2.00;;
16063;SDS011;8136;53.172;8.256;2022-09-09T10:46:50;2.60;;;1.70;;
16063;SDS011;8136;53.172;8.256;2022-09-09T10:49:29;4.97;;;2.33;;
16063;SDS011;8136;53.172;8.256;2022-09-09T10:52:18;4.43;;;2.40;;
16063;SDS011;8136;53.172;8.256;2022-09-09T10:58:44;3.80;;;2.30;;
16063;SDS011;8136;53.172;8.256;2022-09-09T11:01:16;5.43;;;2.40;;
16063;SDS011;8136;53.172;8.256;2022-09-09T11:03:50;4.80;;;2.43;;
16063;SDS011;8136;53.172;8.256;2022-09-09T11:06:21;3.70;;;1.90;;
16063;SDS011;8136;53.172;8.256;2022-09-09T11:08:54;4.03;;;1.80;;
16063;SDS011;8136;53.172;8.256;2022-09-09T11:11:25;7.10;;;2.20;;
16063;SDS011;8136;53.172;8.256;2022-09-09T11:13:57;3.90;;;2.03;;
16063;SDS011;8136;53.172;8.256;2022-09-09T11:16:31;4.60;;;2.23;;
16063;SDS011;8136;53.172;8.256;2022-09-09T11:19:04;7.73;;;2.50;;
16063;SDS011;8136;53.172;8.256;2022-09-09T11:21:41;3.07;;;2.33;;
16063;SDS011;8136;53.172;8.256;2022-09-09T11:24:13;4.47;;;2.20;;
16063;SDS011;8136;53.172;8.256;2022-09-09T11:26:45;4.07;;;2.47;;
16063;SDS011;8136;53.172;8.256;2022-09-09T11:29:26;4.87;;;2.67;;
16063;SDS011;8136;53.172;8.256;2022-09-09T11:32:08;16.07;;;3.40;;
16063;SDS011;8136;53.172;8.256;2022-09-09T11:34:50;6.37;;;2.87;;
16063;SDS011;8136;53.172;8.256;2022-09-09T11:37:32;3.17;;;2.30;;
16063;SDS011;8136;53.172;8.256;2022-09-09T11:40:17;5.97;;;2.30;;
16063;SDS011;8136;53.172;8.256;2022-09-09T11:42:48;6.80;;;3.13;;
16063;SDS011;8136;53.172;8.256;2022-09-09T11:45:21;2.90;;;2.60;;
16063;SDS011;8136;53.172;8.256;2022-09-09T11:47:54;4.20;;;3.03;;
16063;SDS011;8136;53.172;8.256;2022-09-09T11:50:31;4.93;;;2.33;;
16063;SDS011;8136;53.172;8.256;2022-09-09T11:55:59;5.20;;;3.20;;
16063;SDS011;8136;53.172;8.256;2022-09-09T11:58:30;5.30;;;2.60;;
16063;SDS011;8136;53.172;8.256;2022-09-09T12:01:25;6.20;;;2.90;;
16063;SDS011;8136;53.172;8.256;2022-09-09T12:03:57;3.30;;;2.60;;
16063;SDS011;8136;53.172;8.256;2022-09-09T12:06:49;3.87;;;2.60;;
16063;SDS011;8136;53.172;8.256;2022-09-09T12:09:19;6.53;;;3.27;;
16063;SDS011;8136;53.172;8.256;2022-09-09T12:11:51;6.67;;;3.47;;
16063;SDS011;8136;53.172;8.256;2022-09-09T12:14:22;9.20;;;3.90;;
16063;SDS011;8136;53.172;8.256;2022-09-09T12:17:10;7.17;;;3.40;;
16063;SDS011;8136;53.172;8.256;2022-09-09T12:19:44;7.00;;;2.80;;
16063;SDS011;8136;53.172;8.256;2022-09-09T12:22:13;4.53;;;2.67;;
16063;SDS011;8136;53.172;8.256;2022-09-09T12:24:49;5.53;;;2.77;;
16063;SDS011;8136;53.172;8.256;2022-09-09T12:27:26;5.00;;;3.00;;
16063;SDS011;8136;53.172;8.256;2022-09-09T12:29:59;4.43;;;3.07;;
16063;SDS011;8136;53.172;8.256;2022-09-09T12:32:32;6.73;;;3.00;;
16063;SDS011;8136;53.172;8.256;2022-09-09T12:34:59;6.63;;;3.00;;
16063;SDS011;8136;53.172;8.256;2022-09-09T12:37:31;5.53;;;2.80;;
16063;SDS011;8136;53.172;8.256;2022-09-09T12:40:02;5.97;;;3.20;;
16063;SDS011;8136;53.172;8.256;2022-09-09T12:42:31;9.93;;;3.23;;
16063;SDS011;8136;53.172;8.256;2022-09-09T12:44:59;5.47;;;2.97;;
16063;SDS011;8136;53.172;8.256;2022-09-09T12:47:36;5.63;;;2.90;;
16063;SDS011;8136;53.172;8.256;2022-09-09T12:50:12;5.40;;;3.33;;
16063;SDS011;8136;53.172;8.256;2022-09-09T12:52:42;4.80;;;3.13;;
16063;SDS011;8136;53.172;8.256;2022-09-09T12:58:27;8.30;;;3.40;;
16063;SDS011;8136;53.172;8.256;2022-09-09T13:01:00;7.93;;;3.90;;
16063;SDS011;8136;53.172;8.256;2022-09-09T13:03:31;7.47;;;3.67;;
16063;SDS011;8136;53.172;8.256;2022-09-09T13:06:10;5.90;;;3.30;;
16063;SDS011;8136;53.172;8.256;2022-09-09T13:08:38;5.33;;;2.80;;
16063;SDS011;8136;53.172;8.256;2022-09-09T13:11:07;7.33;;;3.03;;
16063;SDS011;8136;53.172;8.256;2022-09-09T13:13:40;5.13;;;3.40;;
16063;SDS011;8136;53.172;8.256;2022-09-09T13:16:18;7.40;;;3.00;;
16063;SDS011;8136;53.172;8.256;2022-09-09T13:18:50;8.57;;;3.20;;
16063;SDS011;8136;53.172;8.256;2022-09-09T13:21:17;7.13;;;3.60;;
16063;SDS011;8136;53.172;8.256;2022-09-09T13:23:48;6.93;;;3.90;;
16063;SDS011;8136;53.172;8.256;2022-09-09T13:26:21;6.03;;;3.87;;
16063;SDS011;8136;53.172;8.256;2022-09-09T13:28:51;7.93;;;3.90;;
16063;SDS011;8136;53.172;8.256;2022-09-09T13:31:20;5.40;;;3.47;;
16063;SDS011;8136;53.172;8.256;2022-09-09T13:33:50;5.13;;;3.90;;
16063;SDS011;8136;53.172;8.256;2022-09-09T13:36:26;6.30;;;3.50;;
16063;SDS011;8136;53.172;8.256;2022-09-09T13:38:56;6.17;;;3.30;;
16063;SDS011;8136;53.172;8.256;2022-09-09T13:41:26;5.53;;;3.40;;
16063;SDS011;8136;53.172;8.256;2022-09-09T13:43:56;5.53;;;3.40;;
16063;SDS011;8136;53.172;8.256;2022-09-09T13:46:25;5.83;;;3.60;;
16063;SDS011;8136;53.172;8.256;2022-09-09T13:48:58;4.83;;;3.50;;
16063;SDS011;8136;53.172;8.256;2022-09-09T13:51:30;6.27;;;3.60;;
16063;SDS011;8136;53.172;8.256;2022-09-09T13:54:02;5.83;;;3.77;;
16063;SDS011;8136;53.172;8.256;2022-09-09T13:56:30;5.57;;;3.63;;
16063;SDS011;8136;53.172;8.256;2022-09-09T13:58:57;4.80;;;2.80;;
16063;SDS011;8136;53.172;8.256;2022-09-09T14:01:24;9.43;;;2.93;;
16063;SDS011;8136;53.172;8.256;2022-09-09T14:03:52;5.00;;;2.17;;
16063;SDS011;8136;53.172;8.256;2022-09-09T14:06:21;2.53;;;1.60;;
16063;SDS011;8136;53.172;8.256;2022-09-09T14:08:48;1.43;;;1.23;;
16063;SDS011;8136;53.172;8.256;2022-09-09T14:11:16;4.33;;;1.23;;
16063;SDS011;8136;53.172;8.256;2022-09-09T14:13:44;1.70;;;0.97;;
16063;SDS011;8136;53.172;8.256;2022-09-09T14:16:11;2.43;;;1.10;;
16063;SDS011;8136;53.172;8.256;2022-09-09T14:18:38;2.90;;;1.10;;
16063;SDS011;8136;53.172;8.256;2022-09-09T14:21:06;3.53;;;1.20;;
16063;SDS011;8136;53.172;8.256;2022-09-09T14:23:35;2.23;;;1.40;;
16063;SDS011;8136;53.172;8.256;2022-09-09T14:26:03;3.10;;;1.27;;
16063;SDS011;8136;53.172;8.256;2022-09-09T14:28:31;3.20;;;1.50;;
16063;SDS011;8136;53.172;8.256;2022-09-09T14:30:59;2.13;;;1.23;;
16063;SDS011;8136;53.172;8.256;2022-09-09T14:33:26;2.07;;;1.77;;
16063;SDS011;8136;53.172;8.256;2022-09-09T14:35:55;3.23;;;1.70;;
16063;SDS011;8136;53.172;8.256;2022-09-09T14:38:22;2.87;;;2.10;;
16063;SDS011;8136;53.172;8.256;2022-09-09T14:40:51;2.70;;;2.00;;
16063;SDS011;8136;53.172;8.256;2022-09-09T14:43:17;3.73;;;1.90;;
16063;SDS011;8136;53.172;8.256;2022-09-09T14:45:45;2.37;;;1.67;;
16063;SDS011;8136;53.172;8.256;2022-09-09T14:48:12;2.13;;;1.77;;
16063;SDS011;8136;53.172;8.256;2022-09-09T14:50:39;3.80;;;2.10;;
16063;SDS011;8136;53.172;8.256;2022-09-09T14:53:06;3.27;;;1.90;;
16063;SDS011;8136;53.172;8.256;2022-09-09T14:55:33;4.00;;;1.80;;
16063;SDS011;8136;53.172;8.256;2022-09-09T14:58:02;5.30;;;2.20;;
16063;SDS011;8136;53.172;8.256;2022-09-09T15:00:29;3.13;;;2.00;;
16063;SDS011;8136;53.172;8.256;2022-09-09T15:02:56;2.93;;;1.67;;
16063;SDS011;8136;53.172;8.256;2022-09-09T15:05:22;4.57;;;2.00;;
16063;SDS011;8136;53.172;8.256;2022-09-09T15:07:50;3.83;;;2.10;;
16063;SDS011;8136;53.172;8.256;2022-09-09T15:10:17;3.43;;;1.60;;
16063;SDS011;8136;53.172;8.256;2022-09-09T15:12:44;3.77;;;1.83;;
16063;SDS011;8136;53.172;8.256;2022-09-09T15:15:12;2.20;;;1.53;;
16063;SDS011;8136;53.172;8.256;2022-09-09T15:17:39;3.07;;;1.53;;
16063;SDS011;8136;53.172;8.256;2022-09-09T15:20:06;3.13;;;1.57;;
16063;SDS011;8136;53.172;8.256;2022-09-09T15:22:34;1.93;;;1.53;;
16063;SDS011;8136;53.172;8.256;2022-09-09T15:25:02;2.80;;;1.40;;
16063;SDS011;8136;53.172;8.256;2022-09-09T15:27:30;2.33;;;1.70;;
16063;SDS011;8136;53.172;8.256;2022-09-09T15:29:57;2.73;;;1.60;;
16063;SDS011;8136;53.172;8.256;2022-09-09T15:32:27;4.33;;;1.57;;
16063;SDS011;8136;53.172;8.256;2022-09-09T15:34:54;5.77;;;1.97;;
16063;SDS011;8136;53.172;8.256;2022-09-09T15:37:21;2.00;;;1.80;;